Nashville, Tennessee
Traffic Map
Current Weather Conditions
Nashville, Tennessee
Scattered Clouds
Scattered Clouds
76°
Feels Like: 76°
Wind Chill: 76° Ceiling: Unl
Heat Index: 76° Visibility: 10mi
Dew Point: 71° Wind: 5mph
Humidity: 85% Direction: 290° (WNW)
Pressure: 30.11in Gusts: 0mph
Raw Report DataKBNA 180353Z 29004KT 10SM SCT250 24/22 A3011 RMK A02 SLP190 T02440217 $
Traffic Incident Summary
Active as of:
Severity:
Category:
InformationThere was an issue retrieving the traffic information for this location. Please try a different location or try again shortly.
Advertisements